createdAt,value
2023-01-29T00:01:54.089Z,86.10
2023-01-29T00:04:20.784Z,85.87
2023-01-29T00:06:47.278Z,85.57
2023-01-29T00:09:13.796Z,86.97
2023-01-29T00:11:41.091Z,86.95
2023-01-29T00:14:07.992Z,86.73
2023-01-29T00:16:34.544Z,86.04
2023-01-29T00:19:02.248Z,85.83
2023-01-29T00:21:31.086Z,85.90
2023-01-29T00:23:58.687Z,85.96
2023-01-29T00:26:25.860Z,85.80
2023-01-29T00:28:52.523Z,86.71
2023-01-29T00:31:22.137Z,86.23
2023-01-29T00:33:49.650Z,85.81
2023-01-29T00:36:18.423Z,85.84
2023-01-29T00:38:46.426Z,86.42
2023-01-29T00:41:34.297Z,85.97
2023-01-29T00:44:20.093Z,87.02
2023-01-29T00:46:46.784Z,85.74
2023-01-29T00:49:13.396Z,87.00
2023-01-29T00:51:40.098Z,86.30
2023-01-29T00:54:07.060Z,85.85
2023-01-29T00:56:36.648Z,86.03
2023-01-29T00:59:04.384Z,86.71
2023-01-29T01:01:49.405Z,87.21
2023-01-29T01:04:15.889Z,87.63
2023-01-29T01:06:42.986Z,87.82
2023-01-29T01:09:29.206Z,87.96
2023-01-29T01:11:55.991Z,88.20
2023-01-29T01:14:22.525Z,88.80
2023-01-29T01:16:49.462Z,88.84
2023-01-29T01:19:16.429Z,88.75
2023-01-29T01:21:48.253Z,88.54
2023-01-29T01:24:15.411Z,88.34
2023-01-29T01:26:41.958Z,88.86
2023-01-29T01:29:09.141Z,88.97
2023-01-29T01:31:35.810Z,88.31
2023-01-29T01:34:02.445Z,89.64
2023-01-29T01:36:28.883Z,88.62
2023-01-29T01:38:55.577Z,87.80
2023-01-29T01:41:23.283Z,89.15
2023-01-29T01:43:58.616Z,89.41
2023-01-29T01:46:28.338Z,88.66
2023-01-29T01:49:01.539Z,88.87
2023-01-29T01:51:32.110Z,90.05
2023-01-29T01:54:12.806Z,89.25
2023-01-29T01:56:44.506Z,88.42
2023-01-29T01:59:14.554Z,88.45
2023-01-29T02:01:43.335Z,88.29
2023-01-29T02:04:40.833Z,88.11
2023-01-29T02:07:31.697Z,88.73
2023-01-29T02:10:10.025Z,88.09
2023-01-29T02:12:37.362Z,88.08
2023-01-29T02:15:05.146Z,88.25
2023-01-29T02:17:32.358Z,87.93
2023-01-29T02:20:30.175Z,88.35
2023-01-29T02:23:16.825Z,87.99
2023-01-29T02:26:13.540Z,88.35
2023-01-29T02:28:54.717Z,88.88
2023-01-29T02:31:34.670Z,88.25
2023-01-29T02:34:18.670Z,88.53
2023-01-29T02:36:51.530Z,88.72
2023-01-29T02:39:39.638Z,89.16
2023-01-29T02:42:27.844Z,87.36
2023-01-29T02:45:06.396Z,88.06
2023-01-29T02:47:47.597Z,87.58
2023-01-29T02:51:00.602Z,88.66
2023-01-29T02:53:34.790Z,89.12
2023-01-29T02:56:15.833Z,89.73
2023-01-29T02:58:54.926Z,89.75
2023-01-29T03:01:30.347Z,89.38
2023-01-29T03:04:03.195Z,89.18
2023-01-29T03:06:37.998Z,89.06
2023-01-29T03:09:26.892Z,89.07
2023-01-29T03:12:01.121Z,89.54
2023-01-29T03:14:59.057Z,89.33
2023-01-29T03:17:32.595Z,89.19
2023-01-29T03:19:59.645Z,89.54
2023-01-29T03:22:27.278Z,90.38
2023-01-29T03:25:16.905Z,90.60
2023-01-29T03:28:08.622Z,89.40
2023-01-29T03:30:59.159Z,89.36
2023-01-29T03:33:29.563Z,89.49
2023-01-29T03:36:02.481Z,89.85
2023-01-29T03:38:31.700Z,89.21
2023-01-29T03:41:06.623Z,89.21
2023-01-29T03:43:36.061Z,89.65
2023-01-29T03:46:14.353Z,89.66
2023-01-29T03:48:53.568Z,89.54
2023-01-29T03:51:28.275Z,89.93
2023-01-29T03:54:08.309Z,90.44
2023-01-29T03:56:52.855Z,89.75
2023-01-29T03:59:28.163Z,89.53
2023-01-29T04:01:59.486Z,89.84
2023-01-29T04:04:33.067Z,89.54
2023-01-29T04:07:11.593Z,89.33
2023-01-29T04:09:45.380Z,89.60
2023-01-29T04:12:16.396Z,89.77
2023-01-29T04:14:43.021Z,89.33
2023-01-29T04:17:16.393Z,89.50
2023-01-29T04:19:43.355Z,89.14
2023-01-29T04:22:34.641Z,88.17
2023-01-29T04:25:15.897Z,88.09
2023-01-29T04:27:57.322Z,87.46
2023-01-29T04:30:44.598Z,87.63
2023-01-29T04:33:30.424Z,88.33
2023-01-29T04:36:07.104Z,88.64
2023-01-29T04:38:59.498Z,88.47
2023-01-29T04:41:40.561Z,88.70
2023-01-29T04:44:33.472Z,89.41
2023-01-29T04:47:23.795Z,88.56
2023-01-29T04:50:11.656Z,88.84
2023-01-29T04:52:50.264Z,88.35
2023-01-29T04:55:47.216Z,88.51
2023-01-29T04:58:35.927Z,89.01
2023-01-29T05:01:07.065Z,88.39
2023-01-29T05:03:36.295Z,88.45
2023-01-29T05:06:04.849Z,88.21
2023-01-29T05:08:32.744Z,88.90
2023-01-29T05:10:59.902Z,88.90
2023-01-29T05:13:29.984Z,89.23
2023-01-29T05:16:04.880Z,89.69
2023-01-29T05:18:32.279Z,88.73
2023-01-29T05:21:04.304Z,89.16
2023-01-29T05:23:30.941Z,88.83
2023-01-29T05:25:57.808Z,89.43
2023-01-29T05:28:24.299Z,89.32
2023-01-29T05:30:53.681Z,88.64
2023-01-29T05:33:23.006Z,89.56
2023-01-29T05:35:50.372Z,88.43
2023-01-29T05:38:20.531Z,88.84
2023-01-29T05:40:47.549Z,88.59
2023-01-29T05:43:25.198Z,88.74
2023-01-29T05:45:52.874Z,88.37
2023-01-29T05:48:19.483Z,89.28
2023-01-29T05:50:45.979Z,88.33
2023-01-29T05:53:12.502Z,89.17
2023-01-29T05:55:39.005Z,88.77
2023-01-29T05:58:06.205Z,89.55
2023-01-29T06:00:32.712Z,90.05
2023-01-29T06:02:59.315Z,89.54
2023-01-29T06:05:25.852Z,89.74
2023-01-29T06:07:52.290Z,89.34
2023-01-29T06:10:19.153Z,88.60
2023-01-29T06:12:45.938Z,89.81
2023-01-29T06:15:13.010Z,89.65
2023-01-29T06:17:39.573Z,89.40
2023-01-29T06:20:06.729Z,88.13
2023-01-29T06:22:33.552Z,89.11
2023-01-29T06:25:00.058Z,88.45
2023-01-29T06:27:26.736Z,88.75
2023-01-29T06:29:53.203Z,89.75
2023-01-29T06:32:19.764Z,89.12
2023-01-29T06:34:48.637Z,89.55
2023-01-29T06:37:16.135Z,89.03
2023-01-29T06:39:42.585Z,88.63
2023-01-29T06:42:09.994Z,87.79
2023-01-29T06:44:36.573Z,88.64
2023-01-29T06:47:03.090Z,89.38
2023-01-29T06:49:29.637Z,89.06
2023-01-29T06:51:56.125Z,88.24
2023-01-29T06:54:22.626Z,88.71
2023-01-29T06:56:49.243Z,88.30
2023-01-29T06:59:16.007Z,88.57
2023-01-29T07:01:44.219Z,88.13
2023-01-29T07:04:11.497Z,89.19
2023-01-29T07:06:38.024Z,89.02
2023-01-29T07:09:05.007Z,88.82
2023-01-29T07:11:32.019Z,89.22
2023-01-29T07:13:58.580Z,88.07
2023-01-29T07:16:26.376Z,89.11
2023-01-29T07:18:53.119Z,88.87
2023-01-29T07:21:19.687Z,88.39
2023-01-29T07:23:46.213Z,88.37
2023-01-29T07:26:12.704Z,88.67
2023-01-29T07:28:40.051Z,88.63
2023-01-29T07:31:07.347Z,87.54
2023-01-29T07:33:34.663Z,87.72
2023-01-29T07:36:01.155Z,87.27
2023-01-29T07:38:27.823Z,88.32
2023-01-29T07:40:54.847Z,87.27
2023-01-29T07:43:21.454Z,87.19
2023-01-29T07:45:48.040Z,87.03
2023-01-29T07:48:14.555Z,86.06
2023-01-29T07:50:41.406Z,90.25
2023-01-29T07:53:19.302Z,87.14
2023-01-29T07:55:45.783Z,86.55
2023-01-29T07:58:12.739Z,86.67
2023-01-29T08:00:39.505Z,86.58
2023-01-29T08:03:07.837Z,86.89
2023-01-29T08:05:34.453Z,87.04
2023-01-29T08:08:07.007Z,86.06
2023-01-29T08:10:38.467Z,87.01
2023-01-29T08:13:06.106Z,86.98
2023-01-29T08:15:33.599Z,87.26
2023-01-29T08:18:02.171Z,88.12
2023-01-29T08:20:28.884Z,87.58
2023-01-29T08:23:00.806Z,87.00
2023-01-29T08:25:28.130Z,86.54
2023-01-29T08:27:56.170Z,86.84
2023-01-29T08:30:22.974Z,86.66
2023-01-29T08:32:49.483Z,86.93
2023-01-29T08:35:16.107Z,85.96
2023-01-29T08:38:01.695Z,85.91
2023-01-29T08:40:31.943Z,85.12
2023-01-29T08:43:04.074Z,84.25
2023-01-29T08:45:34.656Z,84.38
2023-01-29T08:48:01.364Z,83.58
2023-01-29T08:50:30.050Z,83.67
2023-01-29T08:53:01.163Z,83.68
2023-01-29T08:55:28.388Z,84.60
2023-01-29T08:57:57.319Z,83.56
2023-01-29T09:00:23.950Z,83.99
2023-01-29T09:02:50.559Z,84.38
2023-01-29T09:05:17.417Z,83.88
2023-01-29T09:07:44.136Z,84.91
2023-01-29T09:10:12.254Z,84.96
2023-01-29T09:12:38.865Z,83.59
2023-01-29T09:15:05.844Z,82.77
2023-01-29T09:17:32.288Z,83.46
2023-01-29T09:19:58.848Z,84.02
2023-01-29T09:22:25.386Z,83.11
2023-01-29T09:24:51.930Z,83.53
2023-01-29T09:27:18.442Z,84.91
2023-01-29T09:29:44.971Z,83.75
2023-01-29T09:32:11.446Z,83.75
2023-01-29T09:34:37.942Z,84.19
2023-01-29T09:37:04.467Z,85.09
2023-01-29T09:39:30.955Z,85.21
2023-01-29T09:42:06.088Z,84.74
2023-01-29T09:45:14.968Z,84.24
2023-01-29T09:47:42.095Z,84.41
2023-01-29T09:50:19.035Z,83.48
2023-01-29T09:52:52.159Z,82.50
2023-01-29T09:55:25.034Z,82.77
2023-01-29T09:58:07.582Z,83.89
2023-01-29T10:00:40.462Z,83.11
2023-01-29T10:03:18.954Z,83.94
2023-01-29T10:06:05.335Z,83.47
2023-01-29T10:08:48.520Z,83.09
2023-01-29T10:11:17.648Z,84.89
2023-01-29T10:13:59.927Z,83.26
2023-01-29T10:16:38.411Z,83.10
2023-01-29T10:19:17.060Z,82.69
2023-01-29T10:22:04.413Z,83.07
2023-01-29T10:24:42.043Z,83.64
2023-01-29T10:27:15.488Z,81.78
2023-01-29T10:29:43.027Z,82.46
2023-01-29T10:32:16.292Z,81.29
2023-01-29T10:34:56.269Z,80.80
2023-01-29T10:37:26.552Z,81.49
2023-01-29T10:39:53.150Z,80.89
2023-01-29T10:42:28.678Z,80.98
2023-01-29T10:45:18.503Z,80.35
2023-01-29T10:47:54.099Z,81.15
2023-01-29T10:50:47.105Z,80.01
2023-01-29T10:53:44.536Z,80.26
2023-01-29T10:56:41.998Z,78.81
2023-01-29T10:59:36.369Z,79.34
2023-01-29T11:02:03.447Z,78.73
2023-01-29T11:04:32.379Z,75.89
2023-01-29T11:07:00.152Z,76.07
2023-01-29T11:12:03.572Z,77.56
2023-01-29T11:14:52.907Z,77.38
2023-01-29T11:17:23.594Z,76.65
2023-01-29T11:19:51.746Z,76.54
2023-01-29T11:22:20.771Z,75.12
2023-01-29T11:25:16.942Z,72.94
2023-01-29T11:27:55.103Z,73.80
2023-01-29T11:30:28.323Z,73.32
2023-01-29T11:32:57.749Z,73.94
2023-01-29T11:35:25.930Z,73.84
2023-01-29T11:37:52.987Z,74.14
2023-01-29T11:40:19.550Z,72.94
2023-01-29T11:42:47.132Z,72.76
2023-01-29T11:45:33.960Z,73.35
2023-01-29T11:48:01.014Z,71.07
2023-01-29T11:50:33.171Z,71.17
2023-01-29T11:53:00.435Z,70.48
2023-01-29T11:55:40.944Z,70.31
2023-01-29T11:58:34.376Z,70.01
2023-01-29T12:01:01.219Z,69.64
2023-01-29T12:03:41.687Z,69.51
2023-01-29T12:06:18.905Z,70.36
2023-01-29T12:08:58.434Z,69.02
2023-01-29T12:11:30.640Z,70.15
2023-01-29T12:13:59.512Z,68.25
2023-01-29T12:16:53.015Z,71.97
2023-01-29T12:19:33.171Z,68.09
2023-01-29T12:22:04.021Z,67.99
2023-01-29T12:24:41.630Z,67.25
2023-01-29T12:27:15.274Z,67.16
2023-01-29T12:29:59.745Z,67.98
2023-01-29T12:32:50.665Z,67.42
2023-01-29T12:35:27.073Z,65.93
2023-01-29T12:38:00.987Z,67.10
2023-01-29T12:40:33.777Z,66.67
2023-01-29T12:43:09.706Z,67.13
2023-01-29T12:45:37.686Z,66.73
2023-01-29T12:48:13.647Z,67.32
2023-01-29T12:50:41.038Z,67.55
2023-01-29T12:53:28.813Z,66.79
2023-01-29T12:56:20.204Z,68.24
2023-01-29T12:58:50.699Z,66.46
2023-01-29T13:01:33.286Z,67.19
2023-01-29T13:04:06.871Z,66.94
2023-01-29T13:06:41.576Z,66.83
2023-01-29T13:09:22.563Z,65.71
2023-01-29T13:11:56.437Z,64.85
2023-01-29T13:14:28.779Z,63.65
2023-01-29T13:17:09.149Z,64.12
2023-01-29T13:19:41.440Z,64.33
2023-01-29T13:22:18.281Z,63.39
2023-01-29T13:24:55.470Z,63.24
2023-01-29T13:27:33.575Z,64.45
2023-01-29T13:30:00.385Z,62.19
2023-01-29T13:32:29.566Z,63.18
2023-01-29T13:35:00.103Z,64.00
2023-01-29T13:37:45.323Z,66.02
2023-01-29T13:40:24.236Z,64.28
2023-01-29T13:42:53.405Z,64.48
2023-01-29T13:45:34.392Z,63.28
2023-01-29T13:48:27.613Z,78.33
2023-01-29T13:50:56.737Z,63.00
2023-01-29T13:53:27.168Z,62.65
2023-01-29T13:55:54.905Z,63.78
2023-01-29T13:58:33.595Z,63.64
2023-01-29T14:01:01.649Z,64.46
2023-01-29T14:03:29.951Z,64.88
2023-01-29T14:06:02.724Z,66.21
2023-01-29T14:08:34.973Z,63.63
2023-01-29T14:11:14.295Z,64.61
2023-01-29T14:13:48.809Z,64.14
2023-01-29T14:16:15.249Z,65.05
2023-01-29T14:18:55.430Z,63.87
2023-01-29T14:21:28.251Z,64.40
2023-01-29T14:23:58.193Z,64.09
2023-01-29T14:26:46.109Z,64.43
2023-01-29T14:29:14.451Z,63.41
2023-01-29T14:31:49.078Z,64.04
2023-01-29T14:34:23.947Z,64.50
2023-01-29T14:36:55.622Z,66.09
2023-01-29T14:39:29.658Z,65.53
2023-01-29T14:41:57.614Z,65.45
2023-01-29T14:44:45.871Z,66.20
2023-01-29T14:47:28.341Z,65.36
2023-01-29T14:50:00.165Z,67.47
2023-01-29T14:52:37.615Z,66.04
2023-01-29T14:55:09.405Z,65.80
2023-01-29T14:57:36.813Z,66.14
2023-01-29T15:00:17.452Z,67.05
2023-01-29T15:02:45.390Z,67.14
2023-01-29T15:05:19.535Z,65.48
2023-01-29T15:08:01.052Z,65.56
2023-01-29T15:10:35.836Z,65.11
2023-01-29T15:13:07.993Z,64.17
2023-01-29T15:15:40.456Z,67.49
2023-01-29T15:18:17.437Z,67.12
2023-01-29T15:20:44.173Z,64.73
2023-01-29T15:23:24.575Z,65.95
2023-01-29T15:25:54.120Z,65.75
2023-01-29T15:28:21.695Z,65.36
2023-01-29T15:30:55.066Z,66.02
2023-01-29T15:33:21.964Z,65.28
2023-01-29T15:35:51.665Z,65.27
2023-01-29T15:38:22.514Z,76.43
2023-01-29T15:41:19.768Z,86.69
2023-01-29T15:43:49.041Z,69.91
2023-01-29T15:46:33.970Z,62.83
2023-01-29T15:49:06.325Z,63.24
2023-01-29T15:51:33.381Z,65.42
2023-01-29T15:54:02.785Z,65.14
2023-01-29T15:56:33.368Z,65.87
2023-01-29T15:59:07.310Z,66.58
2023-01-29T16:01:35.825Z,67.74
2023-01-29T16:04:03.704Z,67.68
2023-01-29T16:06:38.820Z,67.77
2023-01-29T16:09:07.192Z,67.29
2023-01-29T16:11:35.282Z,67.36
2023-01-29T16:14:03.297Z,66.19
2023-01-29T16:16:30.129Z,66.79
2023-01-29T16:19:01.260Z,67.04
2023-01-29T16:21:33.811Z,68.99
2023-01-29T16:24:09.772Z,68.62
2023-01-29T16:26:44.917Z,67.94
2023-01-29T16:29:14.980Z,67.71
2023-01-29T16:31:44.504Z,68.12
2023-01-29T16:34:22.168Z,69.23
2023-01-29T16:36:49.785Z,69.24
2023-01-29T16:39:32.548Z,69.59
2023-01-29T16:42:12.239Z,69.99
2023-01-29T16:44:47.299Z,70.21
2023-01-29T16:47:20.575Z,70.34
2023-01-29T16:49:53.394Z,71.11
2023-01-29T16:52:23.057Z,71.89
2023-01-29T16:54:52.355Z,72.55
2023-01-29T16:57:25.585Z,72.42
2023-01-29T16:59:55.590Z,72.91
2023-01-29T17:02:24.840Z,72.36
2023-01-29T17:04:54.458Z,73.46
2023-01-29T17:07:21.356Z,73.23
2023-01-29T17:09:54.175Z,73.45
2023-01-29T17:12:24.129Z,74.40
2023-01-29T17:14:59.416Z,74.09
2023-01-29T17:17:35.833Z,74.68
2023-01-29T17:20:14.239Z,75.12
2023-01-29T17:22:40.986Z,75.76
2023-01-29T17:25:09.242Z,75.04
2023-01-29T17:27:35.804Z,75.14
2023-01-29T17:30:02.299Z,76.00
2023-01-29T17:32:44.600Z,76.08
2023-01-29T17:35:14.043Z,74.57
2023-01-29T17:37:40.605Z,74.85
2023-01-29T17:40:33.382Z,74.62
2023-01-29T17:42:59.981Z,75.14
2023-01-29T17:45:26.547Z,76.33
2023-01-29T17:47:53.063Z,76.21
2023-01-29T17:50:28.973Z,76.79
2023-01-29T17:52:55.536Z,77.45
2023-01-29T17:55:22.212Z,77.84
2023-01-29T17:57:48.771Z,78.24
2023-01-29T18:00:20.398Z,79.52
2023-01-29T18:02:47.278Z,79.79
2023-01-29T18:05:15.442Z,80.49
2023-01-29T18:07:44.452Z,79.34
2023-01-29T18:10:17.390Z,79.34
2023-01-29T18:12:44.021Z,78.89
2023-01-29T18:15:11.852Z,79.10
2023-01-29T18:17:38.940Z,79.09
2023-01-29T18:20:25.898Z,78.79
2023-01-29T18:22:52.935Z,79.88
2023-01-29T18:25:20.483Z,79.63
2023-01-29T18:27:47.551Z,81.17
2023-01-29T18:30:14.555Z,80.19
2023-01-29T18:32:41.171Z,80.97
2023-01-29T18:35:08.346Z,80.88
2023-01-29T18:37:35.266Z,80.86
2023-01-29T18:40:02.003Z,81.41
2023-01-29T18:42:31.751Z,80.22
2023-01-29T18:44:58.273Z,81.37
2023-01-29T18:47:25.682Z,81.75
2023-01-29T18:49:52.289Z,81.39
2023-01-29T18:52:18.909Z,81.13
2023-01-29T18:54:45.500Z,81.27
2023-01-29T18:57:14.755Z,83.07
2023-01-29T18:59:58.452Z,81.61
2023-01-29T19:02:25.242Z,82.08
2023-01-29T19:04:51.852Z,82.88
2023-01-29T19:07:18.404Z,83.57
2023-01-29T19:09:46.533Z,82.99
2023-01-29T19:12:13.073Z,83.20
2023-01-29T19:14:39.733Z,83.19
2023-01-29T19:17:06.346Z,82.64
2023-01-29T19:19:32.981Z,82.98
2023-01-29T19:21:59.672Z,82.15
2023-01-29T19:24:26.191Z,82.65
2023-01-29T19:26:52.818Z,82.84
2023-01-29T19:29:20.169Z,83.58
2023-01-29T19:31:47.540Z,82.65
2023-01-29T19:34:14.327Z,84.08
2023-01-29T19:36:41.008Z,83.97
2023-01-29T19:39:07.589Z,82.95
2023-01-29T19:41:34.960Z,83.12
2023-01-29T19:44:01.455Z,82.98
2023-01-29T19:46:30.207Z,83.32
2023-01-29T19:48:58.623Z,82.74
2023-01-29T19:51:27.585Z,82.34
2023-01-29T19:53:55.382Z,82.76
2023-01-29T19:56:21.850Z,82.88
2023-01-29T19:58:48.387Z,82.34
2023-01-29T20:01:21.310Z,83.49
2023-01-29T20:03:49.659Z,84.16
2023-01-29T20:06:18.637Z,85.02
2023-01-29T20:08:46.492Z,85.55
2023-01-29T20:11:14.076Z,87.07
2023-01-29T20:13:40.770Z,85.77
2023-01-29T20:16:08.091Z,85.85
2023-01-29T20:18:35.069Z,86.79
2023-01-29T20:21:11.333Z,87.20
2023-01-29T20:23:39.800Z,86.45
2023-01-29T20:26:08.987Z,87.37
2023-01-29T20:28:36.121Z,86.90
2023-01-29T20:31:03.282Z,88.23
2023-01-29T20:33:30.193Z,89.13
2023-01-29T20:35:58.624Z,86.89
2023-01-29T20:38:32.951Z,86.16
2023-01-29T20:41:15.960Z,85.70
2023-01-29T20:43:43.857Z,85.96
2023-01-29T20:46:10.899Z,84.66
2023-01-29T20:48:38.157Z,85.04
2023-01-29T20:51:07.948Z,85.52
2023-01-29T20:53:34.644Z,85.71
2023-01-29T20:56:03.940Z,85.71
2023-01-29T20:58:30.885Z,86.01
2023-01-29T21:00:58.033Z,87.05
2023-01-29T21:03:24.630Z,87.53
2023-01-29T21:05:51.755Z,87.73
2023-01-29T21:08:18.274Z,86.88
2023-01-29T21:10:47.553Z,87.73
2023-01-29T21:13:13.999Z,87.00
2023-01-29T21:15:42.413Z,87.26
2023-01-29T21:18:08.848Z,88.15
2023-01-29T21:20:35.508Z,87.41
2023-01-29T21:23:04.217Z,88.03
2023-01-29T21:25:32.538Z,88.23
2023-01-29T21:27:59.171Z,88.19
2023-01-29T21:30:26.985Z,86.74
2023-01-29T21:32:53.472Z,88.01
2023-01-29T21:35:20.166Z,88.31
2023-01-29T21:37:46.662Z,88.54
2023-01-29T21:40:13.495Z,89.38
2023-01-29T21:42:58.404Z,88.07
2023-01-29T21:45:24.954Z,87.69
2023-01-29T21:47:51.523Z,87.52
2023-01-29T21:50:18.465Z,86.79
2023-01-29T21:52:45.126Z,87.96
2023-01-29T21:55:11.661Z,88.08
2023-01-29T21:57:38.233Z,88.59
2023-01-29T22:00:05.387Z,88.94
2023-01-29T22:02:32.254Z,88.90
2023-01-29T22:05:16.512Z,88.50
2023-01-29T22:07:45.038Z,88.69
2023-01-29T22:10:12.393Z,87.97
2023-01-29T22:12:39.840Z,88.31
2023-01-29T22:15:07.771Z,87.11
2023-01-29T22:17:35.295Z,87.52
2023-01-29T22:20:02.367Z,87.68
2023-01-29T22:22:28.881Z,86.53
2023-01-29T22:24:56.452Z,87.50
2023-01-29T22:27:22.941Z,87.16
2023-01-29T22:29:49.394Z,86.89
2023-01-29T22:32:16.444Z,86.81
2023-01-29T22:34:42.957Z,87.72
2023-01-29T22:37:09.431Z,86.32
2023-01-29T22:39:35.890Z,87.14
2023-01-29T22:42:02.575Z,87.08
2023-01-29T22:44:29.090Z,86.98
2023-01-29T22:46:55.540Z,85.91
2023-01-29T22:49:23.128Z,86.37
2023-01-29T22:52:09.616Z,87.07
2023-01-29T22:54:41.703Z,87.53
2023-01-29T22:57:12.972Z,87.77
2023-01-29T22:59:39.866Z,87.37
2023-01-29T23:02:07.737Z,87.16
2023-01-29T23:04:34.527Z,86.28
2023-01-29T23:07:01.037Z,86.07
2023-01-29T23:09:27.540Z,86.70
2023-01-29T23:11:54.129Z,85.89
2023-01-29T23:14:20.641Z,85.70
2023-01-29T23:16:47.147Z,86.38
2023-01-29T23:19:13.655Z,86.11
2023-01-29T23:21:40.168Z,85.43
2023-01-29T23:24:08.044Z,85.70
2023-01-29T23:26:53.217Z,85.50
2023-01-29T23:29:20.449Z,85.14
2023-01-29T23:31:47.010Z,84.98
2023-01-29T23:34:14.015Z,84.98
2023-01-29T23:36:40.862Z,85.47
2023-01-29T23:39:07.415Z,86.29
2023-01-29T23:41:33.995Z,85.31
2023-01-29T23:44:00.490Z,85.61
2023-01-29T23:46:27.222Z,85.93
2023-01-29T23:48:53.789Z,86.25
2023-01-29T23:51:20.323Z,87.56
2023-01-29T23:53:46.760Z,86.51
2023-01-29T23:56:13.202Z,86.57
2023-01-29T23:58:39.732Z,86.53
